createdAt,value
2018-02-05T20:26:59.836Z,3.70
2018-02-05T20:27:59.866Z,5.00
2018-02-05T20:28:59.899Z,4.90
2018-02-05T20:29:59.936Z,4.50
2018-02-05T20:30:59.971Z,4.20
2018-02-05T20:32:00.022Z,4.50
2018-02-05T20:33:00.034Z,4.00
2018-02-05T20:34:00.078Z,4.40
2018-02-05T20:35:00.109Z,4.20
2018-02-05T20:36:00.148Z,4.10
2018-02-05T20:37:00.181Z,4.10
2018-02-05T20:38:00.219Z,3.90
2018-02-05T20:39:00.253Z,4.30
2018-02-05T20:40:00.290Z,4.40
2018-02-05T20:41:00.323Z,4.00
2018-02-05T20:42:00.356Z,4.20
2018-02-05T20:43:00.474Z,4.30
2018-02-05T21:00:29.730Z,4.80
2018-02-05T21:04:24.708Z,4.40
2018-02-05T21:05:41.385Z,4.60
2018-02-05T21:06:41.371Z,4.70
2018-02-05T21:08:34.600Z,4.90
2018-02-05T21:09:34.623Z,4.50
2018-02-05T21:10:34.655Z,4.90
2018-02-05T21:11:34.728Z,5.20
2018-02-05T21:12:34.721Z,4.90
2018-02-05T21:13:34.756Z,4.80
2018-02-05T21:14:34.787Z,4.60
2018-02-05T21:15:34.823Z,4.90
2018-02-05T21:16:34.856Z,4.80
2018-02-05T21:17:34.894Z,4.60
2018-02-05T21:18:34.925Z,4.70
2018-02-05T21:19:34.955Z,4.90
2018-02-05T21:20:34.992Z,4.60
2018-02-05T21:21:35.023Z,5.00
2018-02-05T21:22:35.055Z,4.90
2018-02-05T21:23:35.087Z,4.70
2018-02-05T21:24:35.126Z,4.90
2018-02-05T21:25:35.153Z,4.60
2018-02-05T21:26:35.189Z,4.80
2018-02-05T21:27:35.218Z,5.10
2018-02-05T21:28:35.259Z,4.70
2018-02-05T21:29:35.291Z,5.10
2018-02-05T21:30:35.322Z,4.50
2018-02-05T21:31:35.362Z,4.50
2018-02-05T21:32:35.389Z,4.50
2018-02-05T21:33:35.449Z,4.90
2018-02-05T21:34:35.458Z,4.80
2018-02-05T21:35:35.487Z,4.80
2018-02-05T21:36:35.532Z,5.10
2018-02-05T21:37:35.571Z,4.80
2018-02-05T21:38:35.590Z,5.30
2018-02-05T21:39:35.633Z,5.80
2018-02-05T21:40:35.670Z,5.20
2018-02-05T21:41:35.699Z,5.50
